createdAt,value
2022-07-31T00:00:32.230Z,17.03
2022-07-31T00:03:05.719Z,17.04
2022-07-31T00:05:33.061Z,17.08
2022-07-31T00:08:09.185Z,17.07
2022-07-31T00:10:36.579Z,17.05
2022-07-31T00:13:04.113Z,17.10
2022-07-31T00:15:33.889Z,17.06
2022-07-31T00:18:00.886Z,17.13
2022-07-31T00:20:27.893Z,17.11
2022-07-31T00:22:55.290Z,17.06
2022-07-31T00:25:24.526Z,17.04
2022-07-31T00:27:51.554Z,17.10
2022-07-31T00:30:19.037Z,17.08
2022-07-31T00:32:46.737Z,16.97
2022-07-31T00:35:16.635Z,16.97
2022-07-31T00:37:44.675Z,16.92
2022-07-31T00:40:15.550Z,17.00
2022-07-31T00:42:43.329Z,17.02
2022-07-31T00:45:13.341Z,16.98
2022-07-31T00:47:41.131Z,16.93
2022-07-31T00:50:08.559Z,16.92
2022-07-31T00:52:35.883Z,16.89
2022-07-31T00:55:03.614Z,16.91
2022-07-31T00:57:30.629Z,16.93
2022-07-31T00:59:57.876Z,16.95
2022-07-31T01:02:24.797Z,16.92
2022-07-31T01:04:51.707Z,16.95
2022-07-31T01:07:19.017Z,16.92
2022-07-31T01:09:48.545Z,16.95
2022-07-31T01:12:22.710Z,16.98
2022-07-31T01:14:53.290Z,17.00
2022-07-31T01:17:25.085Z,16.93
2022-07-31T01:19:53.276Z,16.93
2022-07-31T01:22:52.571Z,16.97
2022-07-31T01:25:46.184Z,17.01
2022-07-31T01:28:53.878Z,17.01
2022-07-31T01:31:27.765Z,17.12
2022-07-31T01:34:25.222Z,17.12
2022-07-31T01:36:58.418Z,17.13
2022-07-31T01:39:26.938Z,17.10
2022-07-31T01:42:05.079Z,17.08
2022-07-31T01:44:38.556Z,17.12
2022-07-31T01:47:08.011Z,17.04
2022-07-31T01:49:38.850Z,17.04
2022-07-31T01:52:07.640Z,17.08
2022-07-31T01:54:36.699Z,17.04
2022-07-31T01:57:05.674Z,17.08
2022-07-31T01:59:39.295Z,17.16
2022-07-31T02:02:19.499Z,17.24
2022-07-31T02:04:51.574Z,17.22
2022-07-31T02:07:20.515Z,17.27
2022-07-31T02:09:58.309Z,17.28
2022-07-31T02:12:33.718Z,17.29
2022-07-31T02:15:09.664Z,17.29
2022-07-31T02:17:41.774Z,17.29
2022-07-31T02:20:25.239Z,17.27
2022-07-31T02:22:58.393Z,17.26
2022-07-31T02:25:26.839Z,17.34
2022-07-31T02:27:58.569Z,17.35
2022-07-31T02:30:39.138Z,17.34
2022-07-31T02:33:22.685Z,17.37
2022-07-31T02:35:51.638Z,17.36
2022-07-31T02:38:23.977Z,17.38
2022-07-31T02:41:05.084Z,17.40
2022-07-31T02:43:33.417Z,17.40
2022-07-31T02:46:07.154Z,17.37
2022-07-31T02:48:34.986Z,17.35
2022-07-31T02:51:06.916Z,17.36
2022-07-31T02:53:38.001Z,17.42
2022-07-31T02:56:10.233Z,17.38
2022-07-31T02:58:43.527Z,17.35
2022-07-31T03:01:22.113Z,17.30
2022-07-31T03:03:50.322Z,17.26
2022-07-31T03:06:20.159Z,17.22
2022-07-31T03:08:48.414Z,17.18
2022-07-31T03:11:19.858Z,17.21
2022-07-31T03:13:47.941Z,17.17
2022-07-31T03:16:15.808Z,17.11
2022-07-31T03:18:43.740Z,17.11
2022-07-31T03:21:11.992Z,17.11
2022-07-31T03:23:39.883Z,17.13
2022-07-31T03:26:12.421Z,17.05
2022-07-31T03:28:39.324Z,17.07
2022-07-31T03:31:08.020Z,17.08
2022-07-31T03:33:36.753Z,17.13
2022-07-31T03:36:06.413Z,17.18
2022-07-31T03:38:39.119Z,17.21
2022-07-31T03:41:13.882Z,17.26
2022-07-31T03:43:43.998Z,17.34
2022-07-31T03:46:20.263Z,17.38
2022-07-31T03:48:48.469Z,17.38
2022-07-31T03:51:15.763Z,17.42
2022-07-31T03:53:46.308Z,17.44
2022-07-31T03:56:34.531Z,17.48
2022-07-31T03:59:04.463Z,17.46
2022-07-31T04:01:56.688Z,17.50
2022-07-31T04:04:52.473Z,17.51
2022-07-31T04:07:20.907Z,17.58
2022-07-31T04:09:50.581Z,17.59
2022-07-31T04:12:17.983Z,17.61
2022-07-31T04:14:47.907Z,17.64
2022-07-31T04:17:14.861Z,17.70
2022-07-31T04:19:42.225Z,17.71
2022-07-31T04:22:09.636Z,17.71
2022-07-31T04:24:38.169Z,17.76
2022-07-31T04:27:12.743Z,17.76
2022-07-31T04:29:43.549Z,17.81
2022-07-31T04:32:10.836Z,17.90
2022-07-31T04:34:47.214Z,18.06
2022-07-31T04:37:14.413Z,18.14
2022-07-31T04:39:41.410Z,18.20
2022-07-31T04:42:11.483Z,18.25
2022-07-31T04:44:39.182Z,18.27
2022-07-31T04:47:07.577Z,18.29
2022-07-31T04:49:39.144Z,18.33
2022-07-31T04:52:07.557Z,18.23
2022-07-31T04:54:35.140Z,18.29
2022-07-31T04:57:05.755Z,18.29
2022-07-31T04:59:59.849Z,18.26
2022-07-31T05:02:21.811Z,18.30
2022-07-31T05:04:56.357Z,18.32
2022-07-31T05:07:27.723Z,18.28
2022-07-31T05:09:57.247Z,18.28
2022-07-31T05:12:27.208Z,18.31
2022-07-31T05:14:57.114Z,18.34
2022-07-31T05:17:27.190Z,18.33
2022-07-31T05:20:13.230Z,18.36
2022-07-31T05:22:58.050Z,18.42
2022-07-31T05:25:54.300Z,18.57
2022-07-31T05:28:29.744Z,18.76
2022-07-31T05:30:59.361Z,18.80
2022-07-31T05:33:30.721Z,18.75
2022-07-31T05:36:00.778Z,18.78
2022-07-31T05:38:28.558Z,18.80
2022-07-31T05:41:19.051Z,18.88
2022-07-31T05:44:04.815Z,18.87
2022-07-31T05:46:46.808Z,18.79
2022-07-31T05:49:14.834Z,18.88
2022-07-31T05:51:45.049Z,19.09
2022-07-31T05:54:12.325Z,19.74
2022-07-31T05:56:58.214Z,20.48
2022-07-31T05:59:35.999Z,20.23
2022-07-31T06:02:04.946Z,20.36
2022-07-31T06:04:42.886Z,20.11
2022-07-31T06:07:10.167Z,20.22
2022-07-31T06:09:39.279Z,20.46
2022-07-31T06:12:07.129Z,20.49
2022-07-31T06:14:34.196Z,20.42
2022-07-31T06:17:07.903Z,20.38
2022-07-31T06:19:40.006Z,20.22
2022-07-31T06:22:07.608Z,20.35
2022-07-31T06:24:41.703Z,20.31
2022-07-31T06:27:16.197Z,20.55
2022-07-31T06:29:58.169Z,20.50
2022-07-31T06:32:25.318Z,20.52
2022-07-31T06:34:52.868Z,20.58
2022-07-31T06:37:20.244Z,21.00
2022-07-31T06:39:54.220Z,21.72
2022-07-31T06:42:40.814Z,22.35
2022-07-31T06:45:09.190Z,22.58
2022-07-31T06:47:55.267Z,24.05
2022-07-31T06:50:33.985Z,23.56
2022-07-31T06:53:16.593Z,23.11
2022-07-31T06:55:44.843Z,22.98
2022-07-31T06:58:12.145Z,23.04
2022-07-31T07:00:41.689Z,23.40
2022-07-31T07:03:08.966Z,25.09
2022-07-31T07:05:36.364Z,26.42
2022-07-31T07:08:05.566Z,27.55
2022-07-31T07:10:34.471Z,27.82
2022-07-31T07:13:45.233Z,28.22
2022-07-31T07:16:16.251Z,28.25
2022-07-31T07:18:43.595Z,29.10
2022-07-31T07:21:13.603Z,29.77
2022-07-31T07:23:40.861Z,28.69
2022-07-31T07:26:19.070Z,28.83
2022-07-31T07:28:46.367Z,29.27
2022-07-31T07:31:13.687Z,28.79
2022-07-31T07:33:42.939Z,29.78
2022-07-31T07:36:25.397Z,30.31
2022-07-31T07:38:57.304Z,30.24
2022-07-31T07:41:25.588Z,30.63
2022-07-31T07:43:53.575Z,30.76
2022-07-31T07:46:24.597Z,30.39
2022-07-31T07:48:56.428Z,29.68
2022-07-31T07:51:59.013Z,30.44
2022-07-31T07:54:40.721Z,30.49
2022-07-31T07:57:25.478Z,31.20
2022-07-31T08:00:12.905Z,30.76
2022-07-31T08:03:46.382Z,30.96
2022-07-31T08:05:46.611Z,30.99
2022-07-31T08:08:14.518Z,30.07
2022-07-31T08:11:03.652Z,30.62
2022-07-31T08:13:51.249Z,30.88
2022-07-31T08:16:44.699Z,30.69
2022-07-31T08:19:12.098Z,30.60
2022-07-31T08:21:39.418Z,30.60
2022-07-31T08:24:08.123Z,30.79
2022-07-31T08:26:53.834Z,30.62
2022-07-31T08:29:27.427Z,30.59
2022-07-31T08:32:08.771Z,30.81
2022-07-31T08:35:01.211Z,30.81
2022-07-31T08:37:59.208Z,28.91
2022-07-31T08:40:20.690Z,29.83
2022-07-31T08:42:50.603Z,29.94
2022-07-31T08:45:17.558Z,30.10
2022-07-31T08:47:55.635Z,30.99
2022-07-31T08:50:28.663Z,30.67
2022-07-31T08:53:00.210Z,31.17
2022-07-31T08:55:57.820Z,30.96
2022-07-31T08:58:29.518Z,30.82
2022-07-31T09:00:59.739Z,31.07
2022-07-31T09:03:26.954Z,29.27
2022-07-31T09:05:58.468Z,28.66
2022-07-31T09:08:25.928Z,30.01
2022-07-31T09:11:22.894Z,31.16
2022-07-31T09:14:03.535Z,30.16
2022-07-31T09:16:49.161Z,30.58
2022-07-31T09:19:51.852Z,31.11
2022-07-31T09:22:27.415Z,31.17
2022-07-31T09:25:26.785Z,30.11
2022-07-31T09:28:05.015Z,28.21
2022-07-31T09:30:34.102Z,27.30
2022-07-31T09:33:23.837Z,28.83
2022-07-31T09:36:23.142Z,29.77
2022-07-31T09:38:56.610Z,30.46
2022-07-31T09:42:01.691Z,30.92
2022-07-31T09:44:42.561Z,30.74
2022-07-31T09:47:29.024Z,29.46
2022-07-31T09:50:05.139Z,29.46
2022-07-31T09:52:33.932Z,27.56
2022-07-31T09:55:15.579Z,28.07
2022-07-31T09:57:58.407Z,30.05
2022-07-31T10:00:29.983Z,30.72
2022-07-31T10:03:00.218Z,29.87
2022-07-31T10:05:28.207Z,29.87
2022-07-31T10:08:00.344Z,31.07
2022-07-31T10:11:06.275Z,30.92
2022-07-31T10:13:50.032Z,29.77
2022-07-31T10:16:22.715Z,30.25
2022-07-31T10:19:12.974Z,30.33
2022-07-31T10:22:20.507Z,29.40
2022-07-31T10:24:52.499Z,30.08
2022-07-31T10:27:20.293Z,30.76
2022-07-31T10:29:59.437Z,31.26
2022-07-31T10:32:29.966Z,31.32
2022-07-31T10:35:18.401Z,30.70
2022-07-31T10:38:42.543Z,30.88
2022-07-31T10:41:46.446Z,30.33
2022-07-31T10:44:38.195Z,29.67
2022-07-31T10:47:38.625Z,30.50
2022-07-31T10:50:21.836Z,31.00
2022-07-31T10:53:11.079Z,31.12
2022-07-31T10:56:13.131Z,30.54
2022-07-31T10:59:15.687Z,30.61
2022-07-31T11:02:06.170Z,29.19
2022-07-31T11:04:40.474Z,28.36
2022-07-31T11:07:27.624Z,28.96
2022-07-31T11:10:15.060Z,29.25
2022-07-31T11:13:21.281Z,29.37
2022-07-31T11:16:07.157Z,30.00
2022-07-31T11:19:06.928Z,29.20
2022-07-31T11:21:41.914Z,28.94
2022-07-31T11:24:20.352Z,28.10
2022-07-31T11:26:52.110Z,28.46
2022-07-31T11:30:00.381Z,28.28
2022-07-31T11:32:25.367Z,28.19
2022-07-31T11:34:55.745Z,28.73
2022-07-31T11:37:37.549Z,28.37
2022-07-31T11:40:14.865Z,27.94
2022-07-31T11:42:59.864Z,27.60
2022-07-31T11:45:33.462Z,27.61
2022-07-31T11:48:12.125Z,27.61
2022-07-31T11:50:42.186Z,27.74
2022-07-31T11:53:09.609Z,27.64
2022-07-31T11:55:54.633Z,28.40
2022-07-31T11:58:26.649Z,28.10
2022-07-31T12:00:59.730Z,28.45
2022-07-31T12:03:36.677Z,28.78
2022-07-31T12:06:05.433Z,29.25
2022-07-31T12:08:35.522Z,28.56
2022-07-31T12:11:05.418Z,28.05
2022-07-31T12:13:33.462Z,27.91
2022-07-31T12:16:06.735Z,28.41
2022-07-31T12:18:49.620Z,28.15
2022-07-31T12:21:18.380Z,28.03
2022-07-31T12:23:51.484Z,28.26
2022-07-31T12:26:25.469Z,28.21
2022-07-31T12:29:00.540Z,27.76
2022-07-31T12:31:29.083Z,27.67
2022-07-31T12:33:58.446Z,27.56
2022-07-31T12:36:25.613Z,27.60
2022-07-31T12:39:05.157Z,27.80
2022-07-31T12:41:42.474Z,28.09
2022-07-31T12:44:14.540Z,28.33
2022-07-31T12:46:42.176Z,28.37
2022-07-31T12:49:09.739Z,28.04
2022-07-31T12:51:45.463Z,27.43
2022-07-31T12:54:16.461Z,26.98
2022-07-31T12:56:46.926Z,26.49
2022-07-31T12:59:14.946Z,26.31
2022-07-31T13:01:42.202Z,26.79
2022-07-31T13:04:18.348Z,26.92
2022-07-31T13:06:51.740Z,26.95
2022-07-31T13:09:20.263Z,26.86
2022-07-31T13:11:54.537Z,26.67
2022-07-31T13:14:25.687Z,26.52
2022-07-31T13:16:55.386Z,26.74
2022-07-31T13:19:22.424Z,26.94
2022-07-31T13:21:50.261Z,27.25
2022-07-31T13:24:21.102Z,27.20
2022-07-31T13:26:49.724Z,27.28
2022-07-31T13:29:17.868Z,27.23
2022-07-31T13:31:45.436Z,27.05
2022-07-31T13:34:13.116Z,27.06
2022-07-31T13:36:42.979Z,27.02
2022-07-31T13:39:13.479Z,26.88
2022-07-31T13:41:41.959Z,27.31
2022-07-31T13:44:09.646Z,27.60
2022-07-31T13:46:37.020Z,28.00
2022-07-31T13:49:08.687Z,28.14
2022-07-31T13:51:37.965Z,28.41
2022-07-31T13:54:05.915Z,28.68
2022-07-31T13:56:36.793Z,28.43
2022-07-31T13:59:11.467Z,28.31
2022-07-31T14:02:13.538Z,28.26
2022-07-31T14:04:32.270Z,28.53
2022-07-31T14:07:02.084Z,28.82
2022-07-31T14:09:34.299Z,28.91
2022-07-31T14:12:04.677Z,28.51
2022-07-31T14:14:33.387Z,28.15
2022-07-31T14:17:00.435Z,28.11
2022-07-31T14:19:27.547Z,27.77
2022-07-31T14:21:59.177Z,27.47
2022-07-31T14:24:29.266Z,27.26
2022-07-31T14:26:59.365Z,27.02
2022-07-31T14:29:27.071Z,26.88
2022-07-31T14:31:54.330Z,26.85
2022-07-31T14:34:21.530Z,27.20
2022-07-31T14:36:56.827Z,27.00
2022-07-31T14:39:24.133Z,26.93
2022-07-31T14:41:51.346Z,27.06
2022-07-31T14:44:23.887Z,27.23
2022-07-31T14:46:56.355Z,27.24
2022-07-31T14:49:24.447Z,27.13
2022-07-31T14:51:51.907Z,27.19
2022-07-31T14:54:22.458Z,27.10
2022-07-31T14:57:01.284Z,27.09
2022-07-31T14:59:30.586Z,26.97
2022-07-31T15:01:58.912Z,26.88
2022-07-31T15:04:26.173Z,26.86
2022-07-31T15:07:07.816Z,26.83
2022-07-31T15:09:43.266Z,26.85
2022-07-31T15:12:13.406Z,26.75
2022-07-31T15:14:40.545Z,26.76
2022-07-31T15:17:07.833Z,26.76
2022-07-31T15:19:36.013Z,27.08
2022-07-31T15:22:10.428Z,27.45
2022-07-31T15:24:49.247Z,27.61
2022-07-31T15:27:24.878Z,27.59
2022-07-31T15:30:05.641Z,27.69
2022-07-31T15:32:38.584Z,27.48
2022-07-31T15:35:11.538Z,27.26
2022-07-31T15:37:40.462Z,27.07
2022-07-31T15:40:10.980Z,26.96
2022-07-31T15:42:42.860Z,26.86
2022-07-31T15:45:12.572Z,26.80
2022-07-31T15:47:43.674Z,26.74
2022-07-31T15:50:15.318Z,26.75
2022-07-31T15:52:42.842Z,26.88
2022-07-31T15:55:10.678Z,26.98
2022-07-31T15:57:37.963Z,26.94
2022-07-31T16:00:09.553Z,26.88
2022-07-31T16:02:42.557Z,26.74
2022-07-31T16:05:11.800Z,26.62
2022-07-31T16:08:29.176Z,26.56
2022-07-31T16:10:35.248Z,26.46
2022-07-31T16:13:02.528Z,26.46
2022-07-31T16:15:29.864Z,26.57
2022-07-31T16:17:57.276Z,26.63
2022-07-31T16:20:26.737Z,26.70
2022-07-31T16:23:01.652Z,26.67
2022-07-31T16:25:32.079Z,26.54
2022-07-31T16:28:02.849Z,26.42
2022-07-31T16:30:31.086Z,26.30
2022-07-31T16:32:58.316Z,26.28
2022-07-31T16:35:26.386Z,26.13
2022-07-31T16:37:54.845Z,26.02
2022-07-31T16:40:29.730Z,25.95
2022-07-31T16:43:49.695Z,25.99
2022-07-31T16:45:55.818Z,26.00
2022-07-31T16:48:25.454Z,26.02
2022-07-31T16:50:53.442Z,25.98
2022-07-31T16:54:10.885Z,25.95
2022-07-31T16:56:16.780Z,25.94
2022-07-31T16:58:44.252Z,25.93
2022-07-31T17:01:59.204Z,25.99
2022-07-31T17:04:03.874Z,26.00
2022-07-31T17:06:36.012Z,25.98
2022-07-31T17:09:17.446Z,25.89
2022-07-31T17:11:48.579Z,25.85
2022-07-31T17:14:22.374Z,25.82
2022-07-31T17:16:51.017Z,25.76
2022-07-31T17:19:41.108Z,25.73
2022-07-31T17:22:10.903Z,25.81
2022-07-31T17:24:39.802Z,25.77
2022-07-31T17:27:08.483Z,25.68
2022-07-31T17:29:39.679Z,25.67
2022-07-31T17:32:07.305Z,25.52
2022-07-31T17:34:38.021Z,25.33
2022-07-31T17:37:07.327Z,25.24
2022-07-31T17:39:36.110Z,25.16
2022-07-31T17:42:04.367Z,24.99
2022-07-31T17:44:32.045Z,24.92
2022-07-31T17:47:03.749Z,24.84
2022-07-31T17:49:33.147Z,24.72
2022-07-31T17:52:04.035Z,24.66
2022-07-31T17:54:32.775Z,24.58
2022-07-31T17:57:00.573Z,24.39
2022-07-31T17:59:28.861Z,24.22
2022-07-31T18:02:04.241Z,24.06
2022-07-31T18:04:39.324Z,23.89
2022-07-31T18:07:07.662Z,23.78
2022-07-31T18:09:36.773Z,23.59
2022-07-31T18:12:08.208Z,23.47
2022-07-31T18:14:39.205Z,23.29
2022-07-31T18:17:07.241Z,23.14
2022-07-31T18:19:34.917Z,23.03
2022-07-31T18:22:04.990Z,22.90
2022-07-31T18:24:32.274Z,22.78
2022-07-31T18:26:59.757Z,22.79
2022-07-31T18:29:27.426Z,22.69
2022-07-31T18:31:54.716Z,22.51
2022-07-31T18:34:24.596Z,22.38
2022-07-31T18:36:54.997Z,22.26
2022-07-31T18:39:23.673Z,22.19
2022-07-31T18:41:50.920Z,22.12
2022-07-31T18:44:18.325Z,22.11
2022-07-31T18:46:47.949Z,22.13
2022-07-31T18:51:01.286Z,22.08
2022-07-31T18:52:03.218Z,22.08
2022-07-31T18:54:31.054Z,21.95
2022-07-31T18:56:58.522Z,21.83
2022-07-31T18:59:25.821Z,21.80
2022-07-31T19:01:53.332Z,21.81
2022-07-31T19:04:22.863Z,21.72
2022-07-31T19:06:54.109Z,21.71
2022-07-31T19:09:25.386Z,21.64
2022-07-31T19:11:58.694Z,21.54
2022-07-31T19:14:26.764Z,21.47
2022-07-31T19:16:58.065Z,21.39
2022-07-31T19:19:39.262Z,21.43
2022-07-31T19:22:18.632Z,21.41
2022-07-31T19:24:45.539Z,21.37
2022-07-31T19:27:12.793Z,21.43
2022-07-31T19:29:41.123Z,21.33
2022-07-31T19:32:14.266Z,21.29
2022-07-31T19:34:42.241Z,21.28
2022-07-31T19:37:18.436Z,21.21
2022-07-31T19:39:46.919Z,21.31
2022-07-31T19:42:14.083Z,21.40
2022-07-31T19:44:41.142Z,21.46
2022-07-31T19:47:08.660Z,21.43
2022-07-31T19:49:38.395Z,21.41
2022-07-31T19:52:08.147Z,21.44
2022-07-31T19:54:36.085Z,21.46
2022-07-31T19:57:03.750Z,21.35
2022-07-31T19:59:32.454Z,21.48
2022-07-31T20:02:02.820Z,21.40
2022-07-31T20:04:30.377Z,21.38
2022-07-31T20:06:58.131Z,21.46
2022-07-31T20:09:25.624Z,21.44
2022-07-31T20:11:53.680Z,21.44
2022-07-31T20:14:21.010Z,21.42
2022-07-31T20:16:48.181Z,21.30
2022-07-31T20:19:17.660Z,21.32
2022-07-31T20:21:44.948Z,21.22
2022-07-31T20:24:12.823Z,21.18
2022-07-31T20:26:42.349Z,21.10
2022-07-31T20:29:09.679Z,21.03
2022-07-31T20:31:37.043Z,21.11
2022-07-31T20:34:06.460Z,21.07
2022-07-31T20:36:33.516Z,21.03
2022-07-31T20:39:00.951Z,20.98
2022-07-31T20:41:27.948Z,20.98
2022-07-31T20:43:57.349Z,20.95
2022-07-31T20:46:24.979Z,20.92
2022-07-31T20:48:52.098Z,20.84
2022-07-31T20:51:20.608Z,20.78
2022-07-31T20:53:51.986Z,20.76
2022-07-31T20:56:19.777Z,20.72
2022-07-31T20:58:51.798Z,20.87
2022-07-31T21:01:23.267Z,20.92
2022-07-31T21:03:50.810Z,21.08
2022-07-31T21:06:19.402Z,21.31
2022-07-31T21:08:47.219Z,21.38
2022-07-31T21:11:14.154Z,21.46
2022-07-31T21:13:42.098Z,21.49
2022-07-31T21:16:09.390Z,21.52
2022-07-31T21:18:39.982Z,21.53
2022-07-31T21:21:10.276Z,21.57
2022-07-31T21:23:37.577Z,21.56
2022-07-31T21:26:07.804Z,21.67
2022-07-31T21:28:35.624Z,21.63
2022-07-31T21:31:05.549Z,21.58
2022-07-31T21:33:33.367Z,21.58
2022-07-31T21:36:00.938Z,21.55
2022-07-31T21:38:32.798Z,21.48
2022-07-31T21:41:00.028Z,21.44
2022-07-31T21:43:38.343Z,21.42
2022-07-31T21:46:22.564Z,21.44
2022-07-31T21:48:50.464Z,21.52
2022-07-31T21:51:20.072Z,21.53
2022-07-31T21:53:50.051Z,21.56
2022-07-31T21:56:17.432Z,21.53
2022-07-31T21:58:45.159Z,21.50
2022-07-31T22:01:15.163Z,21.38
2022-07-31T22:03:43.284Z,21.22
2022-07-31T22:06:31.281Z,21.28
2022-07-31T22:08:58.571Z,21.30
2022-07-31T22:11:25.572Z,21.23
2022-07-31T22:13:52.950Z,21.17
2022-07-31T22:16:20.232Z,21.08
2022-07-31T22:18:50.436Z,20.98
2022-07-31T22:21:19.588Z,20.86
2022-07-31T22:23:47.150Z,20.73
2022-07-31T22:26:15.554Z,20.73
2022-07-31T22:28:44.206Z,20.69
2022-07-31T22:31:11.671Z,20.69
2022-07-31T22:33:39.150Z,20.67
2022-07-31T22:36:09.445Z,20.60
2022-07-31T22:38:38.288Z,20.43
2022-07-31T22:41:05.665Z,20.34
2022-07-31T22:44:11.626Z,20.31
2022-07-31T22:46:20.200Z,20.21
2022-07-31T22:48:47.357Z,20.19
2022-07-31T22:51:15.529Z,20.06
2022-07-31T22:53:44.350Z,20.04
2022-07-31T22:56:11.413Z,20.00
2022-07-31T22:58:38.779Z,20.07
2022-07-31T23:01:06.141Z,20.05
2022-07-31T23:03:33.735Z,20.01
2022-07-31T23:06:03.071Z,20.01
2022-07-31T23:08:54.812Z,20.00
2022-07-31T23:11:23.592Z,19.97
2022-07-31T23:13:51.793Z,19.97
2022-07-31T23:16:20.534Z,20.04
2022-07-31T23:18:48.198Z,19.93
2022-07-31T23:21:16.013Z,19.87
2022-07-31T23:23:49.275Z,19.83
2022-07-31T23:26:21.477Z,19.74
2022-07-31T23:28:48.589Z,19.72
2022-07-31T23:31:16.594Z,19.70
2022-07-31T23:33:44.555Z,19.74
2022-07-31T23:36:12.293Z,19.72
2022-07-31T23:38:39.979Z,19.73
2022-07-31T23:41:07.485Z,19.76
2022-07-31T23:43:34.752Z,19.79
2022-07-31T23:46:02.766Z,19.74
2022-07-31T23:48:31.418Z,19.66
2022-07-31T23:51:00.890Z,19.62
2022-07-31T23:53:30.274Z,19.60
2022-07-31T23:55:59.876Z,19.57
2022-07-31T23:58:29.478Z,19.45
